Time;durP1;ratioP1;P1;durP2;ratioP2;P2;SDS_P1;SDS_P2;PMS_P1;PMS_P2;Temp;Humidity;BMP_temperature;BMP_pressure;BME280_temperature;BME280_humidity;BME280_pressure;Samples;Min_cycle;Max_cycle;Signal;HPM_P1;HPM_P2
2022/02/09 00:04:00;;;;;;;16.73;7.70;;;;;;;2.69;65.63;100180.88;1766212;80;21127;-67
2022/02/09 00:06:46;;;;;;;15.35;7.65;;;;;;;2.69;65.62;100184.84;1784582;80;21085;-67
2022/02/09 00:08:46;;;;;;;15.13;7.40;;;;;;;2.68;65.59;100179.28;1768086;80;20991;-67
2022/02/09 00:11:18;;;;;;;15.10;7.37;;;;;;;2.69;65.60;100175.61;1787209;80;21016;-67
2022/02/09 00:13:51;;;;;;;13.18;6.62;;;;;;;2.67;65.58;100174.52;1784500;80;21031;-67
2022/02/09 00:21:31;;;;;;;15.13;7.30;;;;;;;2.72;65.55;100176.50;1759694;80;21521;-67
2022/02/09 00:29:16;;;;;;;13.90;7.28;;;;;;;2.77;65.40;100172.72;1787320;80;21150;-67
2022/02/09 00:32:00;;;;;;;13.65;6.97;;;;;;;2.81;65.37;100162.03;1769043;80;21086;-67
2022/02/09 00:34:27;;;;;;;12.13;7.25;;;;;;;2.87;65.30;100161.69;1771934;80;21557;-67
2022/02/09 01:39:13;;;;;;;12.03;6.70;;;;;;;3.17;65.33;100114.32;1729429;83;21526;-68
2022/02/09 01:55:32;;;;;;;12.85;6.37;;;;;;;3.29;66.05;100091.43;1729493;83;21509;-67
2022/02/09 01:57:57;;;;;;;12.47;6.87;;;;;;;3.30;66.14;100093.06;1729069;83;21157;-67
2022/02/09 02:00:26;;;;;;;11.35;6.92;;;;;;;3.29;66.20;100087.47;1729904;83;21015;-67
2022/02/09 02:02:55;;;;;;;14.90;7.25;;;;;;;3.27;66.30;100098.27;1728745;83;21526;-67
2022/02/09 02:05:21;;;;;;;13.75;6.75;;;;;;;3.25;66.43;100100.30;1729685;83;20971;-67
2022/02/09 02:07:54;;;;;;;12.47;7.12;;;;;;;3.21;66.62;100098.34;1729087;83;20999;-66
2022/02/09 02:10:36;;;;;;;14.13;7.50;;;;;;;3.19;66.89;100098.57;1729178;83;21580;-67
2022/02/09 02:16:11;;;;;;;11.95;7.60;;;;;;;3.20;67.27;100101.49;1729514;83;20995;-67
2022/02/09 02:18:17;;;;;;;14.03;7.70;;;;;;;3.18;67.43;100095.62;1726829;81;21004;-67
2022/02/09 02:34:12;;;;;;;14.73;7.85;;;;;;;3.15;68.63;100086.82;1759485;81;20983;-66
2022/02/09 02:36:59;;;;;;;10.35;6.12;;;;;;;3.15;68.78;100083.38;1756066;81;20995;-67
2022/02/09 02:47:13;;;;;;;14.13;7.70;;;;;;;3.12;69.37;100087.77;1759657;81;21043;-67
2022/02/09 02:57:59;;;;;;;13.53;7.35;;;;;;;3.19;69.79;100078.78;1737102;81;20999;-67
2022/02/09 03:13:37;;;;;;;14.28;7.67;;;;;;;3.04;70.48;100092.31;1747323;81;21503;-68
2022/02/09 03:16:06;;;;;;;16.12;8.25;;;;;;;3.08;70.66;100090.05;1747045;82;21058;-67
2022/02/09 03:23:59;;;;;;;15.50;8.68;;;;;;;3.02;70.85;100094.36;1737958;81;21014;-67
2022/02/09 03:57:46;;;;;;;13.93;7.30;;;;;;;3.02;72.26;100114.66;1759582;81;20999;-68
2022/02/09 04:00:23;;;;;;;14.05;8.08;;;;;;;3.01;72.31;100121.77;1759977;81;21105;-68
2022/02/09 04:02:54;;;;;;;15.98;8.10;;;;;;;2.99;72.34;100118.53;1759706;81;21015;-68
2022/02/09 04:05:21;;;;;;;16.15;7.85;;;;;;;3.01;72.42;100113.05;1759700;81;21450;-68
2022/02/09 04:07:47;;;;;;;15.65;7.25;;;;;;;3.04;72.49;100117.90;1759806;81;21530;-68
2022/02/09 04:10:21;;;;;;;15.35;7.50;;;;;;;3.06;72.55;100121.14;1759747;81;21035;-68
2022/02/09 04:15:27;;;;;;;;;;;;;;;3.09;72.63;100119.88;1762367;81;21027;-67
2022/02/09 04:18:07;;;;;;;12.37;7.97;;;;;;;3.11;72.66;100119.95;1758158;81;20441;-67
2022/02/09 04:36:03;;;;;;;14.33;7.83;;;;;;;3.20;72.71;100119.97;1759685;81;21007;-67
2022/02/09 04:39:12;;;;;;;12.53;8.33;;;;;;;3.16;73.19;100126.72;1759681;81;21125;-68
2022/02/09 04:50:10;;;;;;;12.30;8.33;;;;;;;3.23;73.56;100138.01;1759704;81;21486;-68
2022/02/09 04:54:39;;;;;;;11.95;7.95;;;;;;;3.27;73.64;100142.33;1757379;81;21029;-68
2022/02/09 04:57:13;;;;;;;10.95;7.45;;;;;;;3.28;73.72;100141.30;1758695;81;21098;-68
2022/02/09 05:02:41;;;;;;;11.35;6.92;;;;;;;3.35;73.77;100151.78;1729766;83;21003;-68
2022/02/09 05:18:38;;;;;;;16.65;10.50;;;;;;;3.40;74.22;100172.55;1758351;81;21070;-69
2022/02/09 05:26:21;;;;;;;11.83;8.10;;;;;;;3.43;74.21;100177.91;1738925;81;21506;-69
2022/02/09 05:28:37;;;;;;;10.48;7.50;;;;;;;3.44;74.28;100177.68;1752154;81;21136;-69
2022/02/09 05:31:06;;;;;;;11.48;7.37;;;;;;;3.51;74.29;100180.25;1735124;81;21822;-69
2022/02/09 05:33:33;;;;;;;9.75;6.50;;;;;;;3.53;74.23;100176.89;1729373;83;21170;-69
2022/02/09 05:36:00;;;;;;;9.55;6.50;;;;;;;3.57;74.23;100183.34;1729396;83;21032;-69
2022/02/09 05:38:27;;;;;;;8.93;6.40;;;;;;;3.58;74.19;100185.46;1774344;80;21018;-69
2022/02/09 05:40:55;;;;;;;11.33;8.10;;;;;;;3.57;74.21;100189.14;1774823;80;20929;-69
2022/02/09 05:43:24;;;;;;;11.28;8.00;;;;;;;3.49;74.30;100191.05;1776692;80;22145;-69
2022/02/09 05:52:02;;;;;;;13.35;8.55;;;;;;;3.48;74.59;100198.66;1769770;81;20948;-69
2022/02/09 05:56:34;;;;;;;12.18;9.65;;;;;;;3.53;74.77;100206.73;1769803;80;21460;-69
2022/02/09 05:59:03;;;;;;;10.48;7.33;;;;;;;3.55;74.86;100207.02;1765652;81;20999;-67
2022/02/09 06:01:17;;;;;;;11.65;7.80;;;;;;;3.56;74.95;100213.94;1765708;81;21439;-67
2022/02/09 06:03:44;;;;;;;11.05;7.90;;;;;;;3.55;75.03;100220.23;1769135;81;21117;-68
2022/02/09 06:06:11;;;;;;;11.65;8.28;;;;;;;3.52;75.17;100214.38;1769389;81;21082;-68
2022/02/09 06:08:38;;;;;;;14.07;9.78;;;;;;;3.55;75.31;100225.51;1769291;80;21736;-68
2022/02/09 06:11:12;;;;;;;12.78;8.70;;;;;;;3.56;75.41;100227.14;1769320;81;20992;-67
2022/02/09 06:13:50;;;;;;;13.85;7.90;;;;;;;3.59;75.54;100229.35;1768402;81;20972;-68
2022/02/09 06:16:11;;;;;;;12.43;8.33;;;;;;;3.63;75.61;100229.20;1765749;81;21039;-68
2022/02/09 06:21:22;;;;;;;11.83;7.15;;;;;;;3.70;75.69;100235.22;1769518;81;21584;-68
2022/02/09 06:23:51;;;;;;;11.10;7.75;;;;;;;3.73;75.76;100238.73;1793714;79;21053;-67
2022/02/09 06:26:18;;;;;;;12.30;8.10;;;;;;;3.76;75.77;100243.59;1801218;79;21424;-67
2022/02/09 06:28:47;;;;;;;13.48;8.00;;;;;;;3.80;75.75;100246.08;1800798;79;21527;-67
2022/02/09 06:31:15;;;;;;;11.85;8.33;;;;;;;3.80;75.73;100247.39;1801176;79;21006;-68
2022/02/09 06:33:42;;;;;;;11.43;7.78;;;;;;;3.84;75.78;100250.41;1800931;79;21837;-67
2022/02/09 06:36:10;;;;;;;11.60;8.13;;;;;;;3.88;75.75;100256.38;1801029;79;20941;-67
2022/02/09 06:38:40;;;;;;;11.18;8.23;;;;;;;3.88;75.71;100260.33;1800916;79;21437;-68
2022/02/09 06:41:09;;;;;;;11.38;7.92;;;;;;;3.90;75.70;100261.42;1797286;79;21043;-68
2022/02/09 06:43:36;;;;;;;10.23;7.50;;;;;;;3.93;75.74;100263.11;1784965;80;21027;-68
2022/02/09 06:46:05;;;;;;;11.33;7.70;;;;;;;3.96;75.74;100265.31;1784941;80;21171;-68
2022/02/09 06:48:34;;;;;;;11.22;7.72;;;;;;;4.00;75.72;100265.16;1784747;80;21071;-68
2022/02/09 06:51:08;;;;;;;9.83;7.45;;;;;;;4.07;75.69;100264.27;1785010;79;20957;-68
2022/02/09 06:54:14;;;;;;;10.98;7.50;;;;;;;4.11;75.64;100277.33;1768039;81;21043;-68
2022/02/09 06:56:02;;;;;;;11.00;8.10;;;;;;;4.14;75.58;100271.61;1762129;81;20964;-68
2022/02/09 07:01:01;;;;;;;12.03;7.70;;;;;;;4.17;75.56;100282.55;1769514;81;20936;-67
2022/02/09 07:03:27;;;;;;;11.35;7.60;;;;;;;4.24;75.50;100286.44;1769595;81;20960;-68
2022/02/09 07:05:55;;;;;;;10.72;6.87;;;;;;;4.27;75.40;100289.95;1778862;79;21039;-68
2022/02/09 07:08:22;;;;;;;10.80;6.90;;;;;;;4.30;75.36;100289.52;1801110;79;21043;-68
2022/02/09 07:10:48;;;;;;;12.30;7.20;;;;;;;4.34;75.30;100291.20;1800342;79;22171;-68
2022/02/09 07:13:15;;;;;;;10.10;6.65;;;;;;;4.42;75.31;100296.20;1800520;79;21435;-68
2022/02/09 07:15:48;;;;;;;10.28;6.25;;;;;;;4.44;74.98;100296.27;1800010;79;21460;-68
2022/02/09 07:18:13;;;;;;;11.15;6.60;;;;;;;4.49;74.94;100302.20;1769072;81;21067;-68
2022/02/09 07:23:31;;;;;;;10.32;6.62;;;;;;;4.60;74.66;100295.34;1799936;79;21137;-67
2022/02/09 07:26:09;;;;;;;10.30;6.85;;;;;;;4.65;74.53;100295.50;1799240;79;20949;-69
2022/02/09 07:28:33;;;;;;;9.70;5.83;;;;;;;4.69;74.37;100305.39;1800242;79;21071;-68
2022/02/09 07:30:59;;;;;;;10.80;6.47;;;;;;;4.77;74.28;100306.11;1800691;79;20944;-68
2022/02/09 07:33:28;;;;;;;8.60;5.60;;;;;;;4.84;74.07;100314.27;1801107;79;21035;-69
2022/02/09 07:35:55;;;;;;;8.78;5.87;;;;;;;4.92;73.73;100307.84;1801185;79;21455;-68
2022/02/09 07:38:22;;;;;;;8.83;5.55;;;;;;;4.93;73.46;100311.56;1801194;79;21569;-69
2022/02/09 07:40:54;;;;;;;8.95;5.60;;;;;;;4.97;73.27;100304.50;1801004;79;21467;-68
2022/02/09 07:43:26;;;;;;;9.98;6.05;;;;;;;5.00;73.11;100312.83;1783717;79;21005;-68
2022/02/09 07:46:40;;;;;;;10.58;6.05;;;;;;;5.04;72.91;100321.92;1768412;81;20956;-68
2022/02/09 07:51:11;;;;;;;9.40;6.05;;;;;;;5.16;72.45;100320.61;1769316;81;20957;-69
2022/02/09 07:55:50;;;;;;;8.18;4.90;;;;;;;5.27;71.99;100324.34;1769841;80;20148;-68
2022/02/09 07:58:17;;;;;;;9.43;5.60;;;;;;;5.27;71.59;100319.84;1769369;79;21570;-71
2022/02/09 08:00:45;;;;;;;10.18;5.50;;;;;;;5.30;71.48;100329.98;1769773;80;22112;-69
2022/02/09 08:03:12;;;;;;;8.53;5.45;;;;;;;5.31;71.18;100328.14;1769493;81;21051;-66
2022/02/09 08:05:40;;;;;;;11.90;5.53;;;;;;;5.34;71.09;100327.17;1769641;81;21075;-67
2022/02/09 08:08:08;;;;;;;8.30;5.58;;;;;;;5.41;70.95;100332.36;1769589;81;21427;-68
2022/02/09 08:24:07;;;;;;;9.78;4.90;;;;;;;5.73;69.57;100326.75;1800802;79;21495;-68
2022/02/09 08:29:20;;;;;;;8.68;4.60;;;;;;;5.83;69.15;100338.91;1801137;79;21008;-67
2022/02/09 08:32:25;;;;;;;10.28;5.10;;;;;;;5.90;68.82;100340.91;1800817;79;20996;-67
2022/02/09 08:34:14;;;;;;;8.13;4.30;;;;;;;5.95;68.54;100338.39;1797321;79;21067;-67
2022/02/09 08:36:41;;;;;;;9.48;5.03;;;;;;;5.99;68.24;100338.73;1801146;79;20929;-67
2022/02/09 08:39:07;;;;;;;9.50;4.55;;;;;;;6.01;67.95;100341.97;1800895;79;22145;-67
2022/02/09 08:41:35;;;;;;;8.98;4.80;;;;;;;6.01;67.76;100348.59;1801071;79;21412;-68
2022/02/09 08:44:03;;;;;;;11.03;5.53;;;;;;;6.02;67.77;100335.63;1800895;79;21039;-67
2022/02/09 08:46:29;;;;;;;10.50;5.15;;;;;;;6.05;67.63;100366.45;1801048;79;21011;-68
2022/02/09 08:48:57;;;;;;;8.83;4.53;;;;;;;6.06;67.52;100350.85;1801041;79;20996;-67
2022/02/09 08:51:26;;;;;;;9.75;5.00;;;;;;;6.11;67.46;100354.12;1801216;79;21107;-67
2022/02/09 08:53:52;;;;;;;10.75;5.05;;;;;;;6.14;67.19;100354.19;1800912;79;21023;-67
2022/02/09 08:56:20;;;;;;;9.38;5.10;;;;;;;6.17;67.02;100357.70;1800938;79;21011;-67
2022/02/09 08:58:46;;;;;;;9.73;4.97;;;;;;;6.22;66.87;100363.92;1800807;79;21460;-67
2022/02/09 09:01:24;;;;;;;10.60;4.78;;;;;;;6.22;66.40;100372.37;1801124;79;21483;-68
2022/02/09 09:03:49;;;;;;;12.85;4.42;;;;;;;6.23;66.19;100366.86;1798978;79;21143;-67
2022/02/09 09:06:16;;;;;;;8.98;4.62;;;;;;;6.24;65.94;100367.14;1800409;79;20945;-67
2022/02/09 09:17:28;;;;;;;10.70;4.00;;;;;;;6.25;65.27;100372.75;1790023;79;21138;-67
2022/02/09 09:58:00;;;;;;;6.60;3.15;;;;;;;6.80;61.86;100382.87;1801079;79;21055;-67
2022/02/09 10:04:16;;;;;;;7.53;2.70;;;;;;;7.02;58.83;100388.86;1800799;79;21000;-67
2022/02/09 10:34:20;;;;;;;9.18;2.20;;;;;;;6.90;55.18;100411.98;1769062;79;21074;-68
2022/02/09 10:37:06;;;;;;;7.22;2.40;;;;;;;6.86;54.50;100425.45;1769435;80;21419;-68
2022/02/09 10:42:29;;;;;;;4.42;1.57;;;;;;;6.90;54.44;100410.66;1769547;81;20984;-67
2022/02/09 10:44:54;;;;;;;7.75;2.00;;;;;;;7.03;53.85;100419.68;1777487;79;21408;-67
2022/02/09 10:47:27;;;;;;;5.22;2.08;;;;;;;7.14;53.72;100407.39;1800801;79;21015;-68
2022/02/09 10:50:26;;;;;;;4.70;2.02;;;;;;;7.17;53.51;100430.33;1786298;79;21554;-68
2022/02/09 10:52:51;;;;;;;8.08;2.80;;;;;;;7.18;53.35;100419.98;1768464;81;21331;-67
2022/02/09 10:55:43;;;;;;;7.30;2.40;;;;;;;7.20;53.24;100427.70;1800032;79;21067;-67
2022/02/09 10:58:20;;;;;;;6.17;1.92;;;;;;;7.21;53.42;100435.97;1801414;79;20992;-67
2022/02/09 11:00:52;;;;;;;7.92;2.60;;;;;;;7.28;53.43;100426.80;1789523;79;21100;-68
2022/02/09 11:03:27;;;;;;;8.00;2.30;;;;;;;7.36;53.54;100430.91;1765904;79;21473;-68
2022/02/09 11:05:58;;;;;;;6.78;2.70;;;;;;;7.42;53.33;100441.12;1729383;83;21179;-68
2022/02/09 11:08:25;;;;;;;7.22;2.30;;;;;;;7.42;53.49;100440.59;1738482;81;20995;-68
2022/02/09 11:10:54;;;;;;;6.28;3.00;;;;;;;7.43;53.53;100448.03;1759944;81;21459;-68
2022/02/09 11:13:20;;;;;;;6.42;2.52;;;;;;;7.40;53.53;100445.33;1758489;81;21483;-68
2022/02/09 11:15:48;;;;;;;5.67;2.52;;;;;;;7.43;53.67;100436.88;1759752;81;21098;-68
2022/02/09 11:18:21;;;;;;;5.85;2.42;;;;;;;7.49;53.42;100455.86;1758631;81;21078;-68
2022/02/09 11:21:08;;;;;;;5.55;2.50;;;;;;;7.52;53.27;100439.97;1759653;81;20946;-68
2022/02/09 11:26:39;;;;;;;7.67;2.70;;;;;;;7.55;53.24;100447.99;1729962;83;20959;-68
2022/02/09 11:35:12;;;;;;;8.05;2.65;;;;;;;7.66;53.53;100458.55;1733476;81;20968;-68
2022/02/09 11:40:50;;;;;;;6.20;2.75;;;;;;;7.61;53.47;100455.02;1749969;82;20960;-68
2022/02/09 11:43:42;;;;;;;7.58;2.83;;;;;;;7.58;53.49;100466.12;1749426;82;21046;-67
2022/02/09 11:58:15;;;;;;;5.83;2.33;;;;;;;7.72;52.31;100470.87;1750073;82;21000;-69
2022/02/09 12:11:13;;;;;;;8.98;3.00;;;;;;;7.94;52.21;100484.81;1750081;82;20992;-67
2022/02/09 12:16:44;;;;;;;8.15;3.12;;;;;;;7.81;51.95;100485.93;1742671;82;21027;-67
2022/02/09 12:19:09;;;;;;;8.08;2.75;;;;;;;7.75;52.20;100481.56;1747958;81;21016;-67
2022/02/09 12:21:50;;;;;;;8.63;3.02;;;;;;;7.66;52.42;100487.78;1759754;81;20999;-67
2022/02/09 12:24:28;;;;;;;7.62;2.87;;;;;;;7.61;52.63;100493.55;1750663;81;21011;-67
2022/02/09 12:27:10;;;;;;;6.60;2.58;;;;;;;7.57;52.61;100499.04;1729688;83;21498;-67
2022/02/09 12:29:46;;;;;;;8.35;2.98;;;;;;;7.49;52.56;100489.08;1729672;82;20960;-67
2022/02/09 12:32:23;;;;;;;7.17;2.98;;;;;;;7.48;52.64;100491.47;1729261;83;21070;-68
2022/02/09 12:35:05;;;;;;;9.38;2.85;;;;;;;7.48;52.77;100501.30;1729453;83;21007;-68
2022/02/09 12:37:37;;;;;;;5.65;2.10;;;;;;;7.47;52.67;100510.32;1729435;83;21058;-68
2022/02/09 12:40:16;;;;;;;8.83;2.62;;;;;;;7.42;52.46;100511.54;1729632;83;21118;-69
2022/02/09 12:42:46;;;;;;;6.75;2.20;;;;;;;7.37;52.24;100513.59;1729530;83;21507;-67
2022/02/09 12:45:22;;;;;;;6.65;2.10;;;;;;;7.34;52.32;100507.91;1729408;83;21114;-66
2022/02/09 12:47:55;;;;;;;5.78;2.00;;;;;;;7.32;52.13;100525.43;1729426;83;21058;-67
2022/02/09 12:50:33;;;;;;;6.47;2.00;;;;;;;7.28;52.21;100508.36;1729621;83;21102;-67
2022/02/09 12:53:00;;;;;;;5.95;1.82;;;;;;;7.31;52.19;100531.00;1729353;83;21182;-67
2022/02/09 12:55:35;;;;;;;5.72;1.90;;;;;;;7.37;52.09;100514.08;1729496;83;21587;-67
2022/02/09 12:58:08;;;;;;;5.60;2.05;;;;;;;7.47;51.86;100517.77;1729481;83;22272;-68
2022/02/09 13:00:42;;;;;;;6.00;2.47;;;;;;;7.56;51.56;100522.16;1729468;83;21526;-67
2022/02/09 13:03:15;;;;;;;7.92;2.47;;;;;;;7.68;51.37;100515.48;1729325;83;21046;-68
2022/02/09 13:05:52;;;;;;;6.20;1.90;;;;;;;7.77;51.01;100510.06;1729469;83;21118;-67
2022/02/09 13:08:21;;;;;;;8.25;2.55;;;;;;;7.81;50.98;100521.02;1728218;83;20983;-68
2022/02/09 13:10:48;;;;;;;7.03;2.33;;;;;;;7.85;50.83;100524.81;1729395;82;21050;-67
2022/02/09 13:13:22;;;;;;;7.62;2.30;;;;;;;7.88;50.70;100532.31;1729412;81;20999;-68
2022/02/09 13:15:48;;;;;;;8.23;2.65;;;;;;;7.88;50.66;100524.33;1746314;81;21141;-67
2022/02/09 13:18:36;;;;;;;5.33;2.37;;;;;;;7.89;50.78;100525.41;1758065;81;21101;-68
2022/02/09 14:16:01;;;;;;;6.85;2.15;;;;;;;7.01;51.16;100591.22;1769548;81;21432;-67
2022/02/09 14:55:59;;;;;;;7.50;2.30;;;;;;;6.01;54.26;100646.87;1801063;79;20972;-66
2022/02/09 14:58:24;;;;;;;10.82;2.58;;;;;;;5.97;54.37;100645.70;1798590;79;20956;-67
2022/02/09 15:01:07;;;;;;;6.47;2.47;;;;;;;5.93;54.47;100650.66;1800281;79;20957;-67
2022/02/09 15:09:12;;;;;;;7.50;2.75;;;;;;;5.73;54.89;100665.45;1801041;79;20945;-67
2022/02/09 15:11:56;;;;;;;6.80;2.50;;;;;;;5.63;55.12;100665.97;1800413;79;21523;-68
2022/02/09 15:14:30;;;;;;;7.20;2.45;;;;;;;5.58;55.22;100672.95;1800402;79;20944;-66
2022/02/09 15:24:39;;;;;;;7.47;2.62;;;;;;;5.40;55.72;100689.14;1800902;79;20977;-68
2022/02/09 15:27:11;;;;;;;7.17;2.55;;;;;;;5.35;55.78;100688.17;1800826;79;20996;-68
2022/02/09 15:29:38;;;;;;;7.78;2.20;;;;;;;5.34;55.84;100692.66;1801281;79;21031;-68
2022/02/09 15:32:13;;;;;;;9.40;2.62;;;;;;;5.31;55.95;100701.04;1801385;79;21085;-68
2022/02/09 15:34:43;;;;;;;9.53;2.50;;;;;;;5.28;56.02;100697.50;1800774;79;20976;-68
2022/02/09 15:39:54;;;;;;;7.75;2.20;;;;;;;5.23;56.17;100709.28;1728117;82;20977;-67
2022/02/09 16:09:29;;;;;;;11.65;4.10;;;;;;;4.80;57.66;100753.67;1769289;79;21060;-67
2022/02/09 16:18:40;;;;;;;11.85;4.42;;;;;;;4.72;58.05;100755.27;1769461;80;21094;-67
2022/02/09 16:25:19;;;;;;;9.88;3.55;;;;;;;4.62;58.60;100768.15;1739643;81;21218;-66
2022/02/09 16:46:28;;;;;;;14.53;6.60;;;;;;;4.16;59.97;100785.84;1796866;79;21444;-68
2022/02/09 16:49:04;;;;;;;13.32;5.78;;;;;;;4.09;60.23;100787.70;1800857;79;21028;-68
2022/02/09 16:51:30;;;;;;;11.25;4.45;;;;;;;4.06;60.49;100794.73;1800821;79;21135;-67
2022/02/09 16:54:20;;;;;;;12.07;4.17;;;;;;;4.03;60.69;100792.50;1801007;79;21404;-67
2022/02/09 17:19:00;;;;;;;14.70;5.78;;;;;;;3.94;61.84;100817.52;1800734;79;21234;-66
2022/02/09 17:21:22;;;;;;;10.68;4.72;;;;;;;3.91;61.85;100810.81;1799795;79;20929;-68
2022/02/09 17:23:51;;;;;;;13.55;5.25;;;;;;;3.89;61.91;100814.19;1800764;79;21566;-67
2022/02/09 17:26:18;;;;;;;11.85;4.92;;;;;;;3.86;61.94;100818.56;1800987;79;20954;-67
2022/02/09 17:28:56;;;;;;;12.82;5.03;;;;;;;3.85;61.99;100818.75;1800952;79;20984;-67
2022/02/09 17:31:31;;;;;;;12.28;5.40;;;;;;;3.82;62.12;100820.48;1799880;79;20953;-67
2022/02/09 17:39:21;;;;;;;15.32;6.17;;;;;;;3.78;62.32;100830.65;1801054;79;21424;-67
2022/02/09 17:58:01;;;;;;;13.50;7.05;;;;;;;4.01;62.53;100831.52;1769310;81;21977;-70
2022/02/09 18:00:22;;;;;;;14.03;7.03;;;;;;;4.04;62.47;100825.83;1768359;81;21062;-69
2022/02/09 18:02:53;;;;;;;16.35;7.72;;;;;;;4.08;62.38;100835.48;1769248;81;21475;-66
2022/02/09 18:07:53;;;;;;;17.62;8.48;;;;;;;4.14;62.23;100832.81;1800648;79;21004;-69
2022/02/09 18:13:14;;;;;;;19.07;9.50;;;;;;;4.20;62.10;100832.50;1769470;78;20969;-68
2022/02/09 18:15:51;;;;;;;18.15;8.60;;;;;;;4.20;62.07;100838.59;1765821;81;21519;-69
2022/02/09 18:29:11;;;;;;;17.40;8.93;;;;;;;4.12;61.71;100838.03;1795655;79;20980;-67
2022/02/09 18:31:55;;;;;;;15.08;8.15;;;;;;;4.08;61.66;100831.51;1793080;79;20953;-68
2022/02/09 19:01:34;;;;;;;15.05;7.22;;;;;;;3.63;62.07;100836.67;1782991;78;21140;-69
2022/02/09 19:04:10;;;;;;;13.28;6.97;;;;;;;3.62;62.10;100841.16;1786812;79;21475;-69
2022/02/09 19:06:21;;;;;;;16.62;7.67;;;;;;;3.60;62.11;100835.25;1774691;78;21079;-70
2022/02/09 19:14:35;;;;;;;18.77;9.63;;;;;;;3.53;62.24;100843.69;1780826;78;21104;-69
2022/02/09 19:17:10;;;;;;;17.75;9.73;;;;;;;3.49;62.27;100834.55;1791100;78;21137;-68
2022/02/09 19:19:56;;;;;;;16.20;8.15;;;;;;;3.46;62.35;100831.80;1733926;80;21115;-67
2022/02/09 19:46:29;;;;;;;13.95;5.33;;;;;;;3.31;62.47;100840.42;1792707;78;21671;-69
2022/02/09 19:48:51;;;;;;;11.30;5.28;;;;;;;3.29;62.47;100841.12;1789670;78;21016;-68
2022/02/09 19:51:22;;;;;;;11.80;4.90;;;;;;;3.26;62.53;100839.72;1788234;79;21083;-68
2022/02/09 19:54:05;;;;;;;11.57;4.87;;;;;;;3.28;62.57;100852.70;1784962;79;21080;-68
2022/02/09 19:56:21;;;;;;;11.33;5.10;;;;;;;3.26;62.55;100855.55;1730970;80;21061;-69
2022/02/09 19:58:54;;;;;;;12.75;5.33;;;;;;;3.23;62.59;100853.83;1747665;81;21483;-68
2022/02/09 20:01:18;;;;;;;10.03;5.00;;;;;;;3.20;62.65;100856.36;1752517;81;21070;-68
2022/02/09 20:03:42;;;;;;;13.25;5.25;;;;;;;3.19;62.70;100858.70;1746219;81;21057;-68
2022/02/09 20:06:09;;;;;;;10.05;5.05;;;;;;;3.23;62.67;100857.78;1760491;80;21044;-68
2022/02/09 20:08:37;;;;;;;11.93;5.12;;;;;;;3.26;62.61;100854.23;1753610;80;21066;-68
2022/02/09 20:11:08;;;;;;;12.13;5.17;;;;;;;3.26;62.53;100844.19;1734685;80;21161;-68
2022/02/09 20:13:37;;;;;;;15.23;5.90;;;;;;;3.25;62.49;100835.42;1752563;81;21118;-68
2022/02/09 20:16:04;;;;;;;12.63;6.10;;;;;;;3.23;62.38;100832.20;1750361;80;21165;-68
2022/02/09 20:18:33;;;;;;;13.10;5.80;;;;;;;3.20;62.39;100835.75;1733876;81;21076;-69
2022/02/09 20:21:01;;;;;;;11.95;5.90;;;;;;;3.12;62.45;100834.61;1796360;78;21475;-68
2022/02/09 20:23:28;;;;;;;10.48;5.58;;;;;;;3.11;62.54;100838.27;1768699;79;21028;-69
2022/02/09 20:25:55;;;;;;;12.03;5.55;;;;;;;3.08;62.66;100837.34;1788317;79;21023;-69
2022/02/09 20:28:24;;;;;;;14.07;5.45;;;;;;;3.06;62.76;100832.28;1793314;79;21177;-68
2022/02/09 20:31:01;;;;;;;13.85;5.78;;;;;;;3.03;62.84;100834.81;1797210;79;22288;-68
2022/02/09 20:33:26;;;;;;;14.95;5.70;;;;;;;3.02;62.87;100829.20;1771441;78;21515;-69
2022/02/09 20:35:51;;;;;;;9.95;5.20;;;;;;;3.02;62.90;100826.56;1786100;78;21082;-68
2022/02/09 20:38:23;;;;;;;13.98;6.20;;;;;;;3.05;62.92;100826.17;1790524;79;21124;-69
2022/02/09 20:40:55;;;;;;;12.90;5.60;;;;;;;3.08;62.91;100825.47;1783148;78;21003;-69
2022/02/09 20:43:21;;;;;;;13.25;6.03;;;;;;;3.10;62.93;100828.73;1797431;79;21631;-69
2022/02/09 20:45:50;;;;;;;15.20;7.20;;;;;;;3.11;62.96;100831.67;1799328;79;21019;-69
2022/02/09 20:48:22;;;;;;;15.43;6.87;;;;;;;3.13;63.00;100837.06;1794408;79;21501;-68
2022/02/09 20:50:45;;;;;;;14.43;6.50;;;;;;;3.16;63.01;100833.18;1766826;81;21019;-68
2022/02/09 20:53:14;;;;;;;14.70;6.53;;;;;;;3.21;63.02;100840.00;1796589;79;20936;-68
2022/02/09 20:55:43;;;;;;;16.05;6.60;;;;;;;3.25;63.00;100829.34;1801432;79;21943;-68
2022/02/09 20:58:09;;;;;;;13.50;6.15;;;;;;;3.30;62.98;100832.20;1800726;79;21000;-69
2022/02/09 21:00:46;;;;;;;11.57;6.28;;;;;;;3.35;62.96;100827.63;1800164;79;20957;-69
2022/02/09 21:13:31;;;;;;;13.65;5.55;;;;;;;3.44;62.64;100822.45;1769306;81;21040;-68
2022/02/09 21:23:33;;;;;;;16.02;6.25;;;;;;;3.40;62.77;100836.57;1754549;81;20999;-69
2022/02/09 21:26:22;;;;;;;15.00;6.50;;;;;;;3.40;62.79;100837.89;1766249;81;20988;-68
2022/02/09 21:54:58;;;;;;;14.58;7.03;;;;;;;3.20;63.61;100823.36;1781057;79;21547;-68
2022/02/09 21:57:53;;;;;;;15.48;7.60;;;;;;;3.19;63.71;100819.58;1800836;79;21094;-69
2022/02/09 22:00:26;;;;;;;14.70;6.78;;;;;;;3.18;63.80;100808.73;1792823;79;21537;-70
2022/02/09 22:16:47;;;;;;;14.43;6.83;;;;;;;3.30;64.03;100812.41;1769462;81;21064;-68
2022/02/09 22:27:07;;;;;;;14.35;6.53;;;;;;;3.43;64.25;100809.77;1769306;81;21137;-67
2022/02/09 22:45:29;;;;;;;13.83;6.40;;;;;;;3.54;64.39;100791.16;1769582;81;21110;-69
2022/02/09 22:45:34;;;;;;;13.62;6.60;;;;;;;3.60;64.79;100800.91;1769665;80;21008;-69
2022/02/09 22:50:40;;;;;;;12.85;6.20;;;;;;;3.69;64.95;100800.20;1769368;80;21034;-68
2022/02/09 22:55:44;;;;;;;12.55;6.58;;;;;;;3.72;65.06;100787.91;1769528;81;21012;-68
2022/02/09 22:58:12;;;;;;;11.85;6.05;;;;;;;3.76;65.10;100779.86;1769701;79;21499;-68
2022/02/09 23:03:22;;;;;;;11.12;6.05;;;;;;;3.82;65.13;100792.25;1730424;79;21011;-68
2022/02/09 23:05:56;;;;;;;12.68;5.83;;;;;;;3.86;65.15;100785.53;1800364;79;21987;-68
2022/02/09 23:11:28;;;;;;;13.65;6.87;;;;;;;3.91;65.26;100779.09;1801156;79;20924;-68
2022/02/09 23:24:27;;;;;;;11.80;5.95;;;;;;;4.05;66.01;100753.95;1769940;81;21007;-69
2022/02/09 23:57:25;;;;;;;13.55;6.90;;;;;;;4.21;68.75;100758.28;1801234;79;21574;-69
